Time;durP1;ratioP1;P1;durP2;ratioP2;P2;SDS_P1;SDS_P2;PMS_P1;PMS_P2;Temp;Humidity;BMP_temperature;BMP_pressure;BME280_temperature;BME280_humidity;BME280_pressure;Samples;Min_cycle;Max_cycle;Signal;HPM_P1;HPM_P2
2021/12/30 00:01:21;;;;;;;17.23;5.45;;;;;;;10.54;91.21;99745.03;4896972;29;20024;-76
2021/12/30 00:03:48;;;;;;;17.08;5.53;;;;;;;10.51;91.19;99776.97;4898251;29;20044;-76
2021/12/30 00:06:17;;;;;;;15.98;5.35;;;;;;;10.53;91.69;99783.78;4898425;29;20033;-76
2021/12/30 00:08:43;;;;;;;13.60;4.85;;;;;;;10.54;91.29;99782.75;4898179;29;20032;-77
2021/12/30 00:11:08;;;;;;;12.15;4.72;;;;;;;10.57;91.37;99790.34;4901071;29;20033;-76
2021/12/30 00:13:35;;;;;;;13.10;4.57;;;;;;;10.53;91.43;99785.66;4901975;29;20036;-76
2021/12/30 00:16:02;;;;;;;12.35;4.88;;;;;;;10.54;91.18;99790.81;4902556;29;20032;-77
2021/12/30 00:18:28;;;;;;;11.88;4.80;;;;;;;10.52;91.51;99779.44;4900737;29;20103;-76
2021/12/30 00:20:54;;;;;;;;;;;;;;;10.51;90.57;99791.25;4902954;29;20044;-77
2021/12/30 00:23:19;;;;;;;11.50;4.22;;;;;;;10.52;91.24;99803.69;4902152;29;19919;-77
2021/12/30 00:25:45;;;;;;;16.55;6.00;;;;;;;10.59;90.33;99806.31;4901806;29;20460;-77
2021/12/30 00:28:14;;;;;;;10.90;3.78;;;;;;;10.59;90.40;99790.13;4903151;29;20155;-77
2021/12/30 00:30:41;;;;;;;11.68;4.38;;;;;;;10.57;90.02;99795.75;4903320;29;20040;-78
2021/12/30 00:33:06;;;;;;;11.82;3.72;;;;;;;10.60;89.89;99794.47;4902476;29;20040;-77
2021/12/30 00:35:32;;;;;;;8.63;3.60;;;;;;;10.60;90.36;99807.94;4901902;29;20033;-77
2021/12/30 00:37:59;;;;;;;;;;;;;;;10.59;89.87;99806.31;4902016;29;20464;-77
2021/12/30 00:40:25;;;;;;;11.20;4.70;;;;;;;10.56;89.97;99810.28;4901939;29;19959;-78
2021/12/30 00:42:50;;;;;;;18.73;6.03;;;;;;;10.63;89.95;99808.34;4901286;29;20063;-77
2021/12/30 00:45:16;;;;;;;10.98;4.78;;;;;;;10.62;89.70;99798.59;4916056;29;20044;-78
2021/12/30 00:47:41;;;;;;;18.27;5.55;;;;;;;10.64;89.44;99801.09;4921192;29;20032;-79
2021/12/30 00:50:08;;;;;;;12.85;4.35;;;;;;;10.61;90.08;99796.97;4920236;29;20028;-78
2021/12/30 00:52:34;;;;;;;10.48;4.10;;;;;;;10.62;89.14;99795.09;4920714;29;20088;-78
2021/12/30 00:55:00;;;;;;;14.68;3.78;;;;;;;10.59;89.58;99799.03;4920918;29;20036;-77
2021/12/30 00:57:25;;;;;;;14.57;2.72;;;;;;;10.61;89.53;99815.81;4921482;29;20110;-77
2021/12/30 00:59:51;;;;;;;17.27;3.57;;;;;;;10.61;89.24;99829.28;4921189;29;20036;-77
2021/12/30 01:02:18;;;;;;;15.80;2.63;;;;;;;10.59;89.56;99825.16;4922911;29;20268;-78
2021/12/30 01:04:43;;;;;;;13.85;3.83;;;;;;;10.59;89.31;99817.91;4906311;29;20044;-78
2021/12/30 01:07:08;;;;;;;10.13;2.37;;;;;;;10.59;89.64;99830.53;4921818;29;20055;-78
2021/12/30 01:09:34;;;;;;;16.40;2.75;;;;;;;10.58;90.18;99827.03;4906096;29;20276;-77
2021/12/30 01:11:59;;;;;;;12.23;2.78;;;;;;;10.56;90.03;99825.63;4922572;29;20099;-77
2021/12/30 01:14:28;;;;;;;6.20;1.92;;;;;;;10.55;90.45;99823.97;4921464;29;20486;-77
2021/12/30 01:16:58;;;;;;;6.43;1.90;;;;;;;10.56;89.78;99820.25;4923307;29;20052;-78
2021/12/30 01:19:44;;;;;;;19.88;3.90;;;;;;;10.58;90.00;99831.59;4921435;29;20096;-76
2021/12/30 01:22:16;;;;;;;14.85;2.97;;;;;;;10.56;89.84;99839.09;4920164;29;20031;-78
2021/12/30 01:24:43;;;;;;;9.55;2.97;;;;;;;10.57;90.46;99841.53;4920226;29;20443;-77
2021/12/30 01:27:09;;;;;;;8.93;2.13;;;;;;;10.56;89.70;99855.25;4903012;29;20427;-77
2021/12/30 01:29:34;;;;;;;5.63;2.03;;;;;;;10.55;90.36;99846.34;4919387;29;20028;-78
2021/12/30 01:32:00;;;;;;;14.20;2.10;;;;;;;10.54;89.85;99852.78;4902618;29;20067;-78
2021/12/30 01:34:29;;;;;;;12.55;2.47;;;;;;;10.53;90.15;99853.81;4919574;29;20035;-77
2021/12/30 01:36:55;;;;;;;8.20;2.65;;;;;;;10.56;90.35;99849.88;4919416;29;20040;-78
2021/12/30 01:39:22;;;;;;;7.63;2.80;;;;;;;10.56;89.84;99849.88;4919820;29;20028;-77
2021/12/30 01:41:49;;;;;;;13.27;2.67;;;;;;;10.56;90.13;99863.34;4920044;29;20039;-78
2021/12/30 01:44:15;;;;;;;12.30;2.92;;;;;;;10.59;90.11;99865.56;4919679;29;20048;-77
2021/12/30 01:46:43;;;;;;;7.78;3.30;;;;;;;10.58;90.03;99863.91;4919419;29;20087;-78
2021/12/30 01:49:11;;;;;;;9.77;2.58;;;;;;;10.59;90.25;99882.56;4919535;29;20115;-78
2021/12/30 01:51:37;;;;;;;10.00;2.55;;;;;;;10.60;90.37;99886.06;4919968;29;20060;-77
2021/12/30 01:54:03;;;;;;;7.05;3.05;;;;;;;10.62;90.18;99892.06;4919704;29;20440;-77
2021/12/30 01:56:28;;;;;;;;;;;;;;;10.65;89.87;99884.38;4903323;29;20484;-77
2021/12/30 01:58:55;;;;;;;11.57;2.75;;;;;;;10.64;90.23;99884.59;4919071;29;19926;-77
2021/12/30 02:01:20;;;;;;;13.57;2.95;;;;;;;10.67;90.06;99876.09;4919761;29;20036;-78
2021/12/30 02:03:46;;;;;;;7.18;2.55;;;;;;;10.66;90.22;99867.19;4919815;29;20036;-78
2021/12/30 02:06:11;;;;;;;15.20;2.60;;;;;;;10.69;89.78;99868.63;4919722;29;20028;-78
2021/12/30 02:08:37;;;;;;;13.15;2.92;;;;;;;10.70;89.55;99864.88;4920200;29;20476;-77
2021/12/30 02:11:03;;;;;;;11.70;3.25;;;;;;;10.70;89.95;99863.00;4886839;29;20036;-79
2021/12/30 02:13:28;;;;;;;8.55;3.05;;;;;;;10.70;89.54;99876.47;4919644;29;20459;-78
2021/12/30 02:16:00;;;;;;;12.27;3.28;;;;;;;10.72;89.78;99858.22;4919852;29;20463;-79
2021/12/30 02:18:25;;;;;;;6.38;2.22;;;;;;;10.72;90.04;99849.31;4902513;29;20032;-78
2021/12/30 02:20:54;;;;;;;11.57;3.10;;;;;;;10.73;89.89;99857.19;4919469;29;20083;-78
2021/12/30 02:23:30;;;;;;;7.80;2.53;;;;;;;10.78;89.58;99859.19;4919848;29;20712;-80
2021/12/30 02:25:59;;;;;;;9.82;2.15;;;;;;;10.79;89.62;99864.38;4920090;29;20052;-78
2021/12/30 02:28:27;;;;;;;9.07;2.50;;;;;;;10.82;89.59;99863.13;4920206;29;20451;-78
2021/12/30 02:30:54;;;;;;;6.93;1.58;;;;;;;10.83;89.75;99864.78;4919848;29;20028;-78
2021/12/30 02:33:21;;;;;;;6.30;1.60;;;;;;;10.81;89.66;99869.56;4918933;29;20035;-78
2021/12/30 02:35:46;;;;;;;12.45;2.45;;;;;;;10.84;89.73;99868.28;4902273;29;20044;-78
2021/12/30 02:38:16;;;;;;;9.88;2.38;;;;;;;10.84;89.44;99865.59;4919356;29;20448;-79
2021/12/30 02:40:44;;;;;;;11.65;3.22;;;;;;;10.85;89.87;99868.06;4919227;29;20032;-77
2021/12/30 02:43:15;;;;;;;9.35;2.50;;;;;;;10.88;90.15;99873.03;4918984;29;20036;-77
2021/12/30 02:45:41;;;;;;;8.85;1.80;;;;;;;10.89;89.92;99863.06;4919129;29;20052;-77
2021/12/30 02:48:11;;;;;;;;;;;;;;;10.89;89.59;99863.91;4919602;29;20032;-77
2021/12/30 02:50:36;;;;;;;7.30;1.67;;;;;;;10.90;89.57;99868.25;4918655;29;20359;-77
2021/12/30 02:53:02;;;;;;;8.27;1.60;;;;;;;10.91;89.78;99877.16;4918701;29;20039;-77
2021/12/30 02:55:28;;;;;;;8.57;2.17;;;;;;;10.91;90.21;99880.69;4919684;29;20050;-78
2021/12/30 02:57:53;;;;;;;6.82;2.63;;;;;;;10.90;89.59;99876.34;4919648;29;20032;-78
2021/12/30 03:00:18;;;;;;;7.20;1.50;;;;;;;10.90;90.04;99864.72;4919203;29;20079;-77
2021/12/30 03:02:43;;;;;;;10.93;2.10;;;;;;;10.90;90.21;99862.03;4919537;29;20459;-79
2021/12/30 03:05:16;;;;;;;7.30;1.83;;;;;;;10.89;90.51;99858.50;4919030;29;20747;-79
2021/12/30 03:07:43;;;;;;;13.23;1.67;;;;;;;10.91;91.05;99882.53;4919055;29;20295;-79
2021/12/30 03:10:14;;;;;;;12.23;3.65;;;;;;;10.94;91.17;99882.09;4919153;29;20036;-78
2021/12/30 03:12:40;;;;;;;11.27;2.10;;;;;;;10.95;91.12;99889.94;4919239;29;20024;-79
2021/12/30 03:15:05;;;;;;;5.90;2.05;;;;;;;10.96;91.17;99891.59;4919114;29;20111;-80
2021/12/30 03:17:31;;;;;;;7.10;2.33;;;;;;;10.96;91.45;99904.25;4918716;29;20040;-78
2021/12/30 03:19:57;;;;;;;9.77;2.37;;;;;;;10.99;91.03;99904.66;4917645;29;20043;-79
2021/12/30 03:22:23;;;;;;;11.68;2.97;;;;;;;10.98;91.37;99894.91;4918399;29;20260;-81
2021/12/30 03:24:49;;;;;;;7.75;2.60;;;;;;;11.01;91.42;99901.72;4901472;29;20170;-78
2021/12/30 03:27:14;;;;;;;13.15;3.75;;;;;;;11.04;91.94;99890.50;4918270;29;20498;-79
2021/12/30 03:29:39;;;;;;;7.47;2.38;;;;;;;11.03;91.61;99899.66;4901525;29;20035;-80
2021/12/30 03:32:05;;;;;;;13.20;2.65;;;;;;;11.01;91.84;99888.25;4918303;29;20028;-77
2021/12/30 03:34:30;;;;;;;4.97;1.88;;;;;;;10.99;92.07;99893.03;4917583;29;20071;-77
2021/12/30 03:36:55;;;;;;;11.90;3.15;;;;;;;10.98;91.95;99900.31;4917429;29;20067;-79
2021/12/30 03:39:21;;;;;;;9.38;2.67;;;;;;;10.95;92.47;99881.88;4901813;29;20071;-79
2021/12/30 03:41:46;;;;;;;9.15;2.10;;;;;;;10.95;92.46;99881.88;4917993;29;20040;-78
2021/12/30 03:44:11;;;;;;;7.50;2.13;;;;;;;10.95;93.00;99881.88;4918365;29;20403;-78
2021/12/30 03:46:37;;;;;;;11.27;3.33;;;;;;;10.97;92.78;99887.03;4918128;29;20391;-78
2021/12/30 03:49:05;;;;;;;5.95;1.67;;;;;;;10.97;92.73;99890.56;4918156;29;20411;-77
2021/12/30 03:51:37;;;;;;;10.93;2.50;;;;;;;11.02;92.90;99896.13;4918896;29;20032;-79
2021/12/30 03:54:03;;;;;;;9.00;2.42;;;;;;;11.04;92.23;99902.13;4918496;29;20036;-78
2021/12/30 03:56:29;;;;;;;6.70;2.63;;;;;;;11.06;93.13;99904.59;4919382;29;20071;-78
2021/12/30 03:58:55;;;;;;;8.13;2.50;;;;;;;11.06;92.95;99905.44;4919566;29;20047;-79
2021/12/30 04:01:22;;;;;;;11.52;3.55;;;;;;;11.07;93.27;99908.94;4919405;29;20166;-77
2021/12/30 04:03:48;;;;;;;6.85;2.97;;;;;;;11.06;93.20;99902.72;4918269;29;20119;-78
2021/12/30 04:06:14;;;;;;;10.55;2.55;;;;;;;11.05;93.53;99906.47;4917397;29;20056;-78
2021/12/30 04:08:40;;;;;;;10.35;3.35;;;;;;;11.05;93.49;99906.47;4917580;29;20076;-78
2021/12/30 04:11:06;;;;;;;;;;;;;;;11.07;93.47;99914.34;4918465;29;20107;-80
2021/12/30 04:13:31;;;;;;;10.48;3.33;;;;;;;11.03;94.22;99908.56;4919015;29;19965;-79
2021/12/30 04:15:57;;;;;;;8.60;2.53;;;;;;;11.04;94.14;99906.69;4921578;29;20028;-79
2021/12/30 04:18:23;;;;;;;11.70;3.25;;;;;;;11.04;94.92;99907.50;4904702;29;20044;-79
2021/12/30 04:20:48;;;;;;;10.80;3.90;;;;;;;11.05;94.58;99911.88;4904246;29;20065;-80
2021/12/30 04:23:14;;;;;;;7.28;3.03;;;;;;;11.06;94.70;99918.91;4920749;29;20407;-79
2021/12/30 04:25:41;;;;;;;9.73;3.10;;;;;;;11.07;95.35;99925.94;4919847;29;20095;-79
2021/12/30 04:28:06;;;;;;;;;;;;;;;11.08;95.13;99930.31;4918763;29;20032;-79
2021/12/30 04:30:31;;;;;;;10.20;3.70;;;;;;;11.12;95.11;99917.19;4917697;29;19918;-78
2021/12/30 04:32:57;;;;;;;13.27;3.70;;;;;;;11.12;95.20;99914.47;4917886;29;20260;-80
2021/12/30 04:35:22;;;;;;;9.13;3.10;;;;;;;11.11;95.41;99920.91;4918276;29;20032;-80
2021/12/30 04:37:47;;;;;;;8.20;2.58;;;;;;;11.11;95.04;99915.53;4918785;29;20073;-80
2021/12/30 04:40:13;;;;;;;6.88;2.22;;;;;;;11.14;95.45;99925.88;4919735;29;20051;-82
2021/12/30 04:42:40;;;;;;;7.53;3.08;;;;;;;11.16;95.63;99929.19;4919631;29;20044;-79
2021/12/30 04:45:06;;;;;;;6.13;1.80;;;;;;;11.17;95.48;99928.13;4919690;29;20055;-80
2021/12/30 04:47:32;;;;;;;5.88;2.13;;;;;;;11.20;95.75;99922.31;4904927;29;20424;-81
2021/12/30 04:49:58;;;;;;;4.97;1.50;;;;;;;11.18;95.67;99921.69;4922374;29;20039;-81
2021/12/30 04:52:24;;;;;;;;;;;;;;;11.20;95.21;99927.69;4921450;29;20368;-79
2021/12/30 04:54:50;;;;;;;3.33;1.10;;;;;;;11.20;95.71;99914.22;4921968;29;19987;-79
2021/12/30 04:57:16;;;;;;;4.75;1.52;;;;;;;11.22;96.00;99917.53;4923735;29;20071;-80
2021/12/30 04:59:41;;;;;;;;;;;;;;;11.26;95.56;99913.34;4926454;29;20058;-80
2021/12/30 05:02:07;;;;;;;5.00;1.35;;;;;;;11.27;95.93;99915.00;4908899;29;20378;-79
2021/12/30 05:04:33;;;;;;;4.28;1.52;;;;;;;11.27;96.11;99920.38;4926127;29;20380;-79
2021/12/30 05:06:58;;;;;;;;;;;;;;;11.29;95.93;99930.94;4907734;29;20107;-78
2021/12/30 05:09:23;;;;;;;3.22;1.08;;;;;;;11.29;96.03;99933.63;4922150;29;19921;-78
2021/12/30 05:11:49;;;;;;;;;;;;;;;11.32;95.83;99931.31;4904568;29;20031;-78
2021/12/30 05:14:14;;;;;;;3.73;0.90;;;;;;;11.33;96.09;99922.19;4920688;29;19911;-79
2021/12/30 05:16:40;;;;;;;2.45;0.80;;;;;;;11.36;95.78;99924.44;4920581;29;20261;-82
2021/12/30 05:19:05;;;;;;;4.50;0.90;;;;;;;11.38;96.55;99927.75;4920591;29;20036;-80
2021/12/30 05:21:31;;;;;;;3.40;0.65;;;;;;;11.38;96.00;99935.00;4920735;29;20043;-83
2021/12/30 05:23:57;;;;;;;2.20;0.63;;;;;;;11.38;96.23;99933.13;4920843;29;20032;-83
2021/12/30 05:26:27;;;;;;;1.75;0.60;;;;;;;11.40;96.18;99938.31;4920984;29;20471;-80
2021/12/30 05:28:53;;;;;;;1.58;0.57;;;;;;;11.41;96.02;99935.41;4921027;29;20463;-83
2021/12/30 05:31:18;;;;;;;0.95;0.38;;;;;;;11.42;96.30;99938.91;4921270;29;20059;-80
2021/12/30 05:33:43;;;;;;;1.65;0.50;;;;;;;11.44;96.67;99936.81;4921884;29;20439;-81
2021/12/30 05:36:09;;;;;;;2.28;0.70;;;;;;;11.42;96.00;99918.16;4906190;29;20391;-77
2021/12/30 05:38:34;;;;;;;2.15;0.77;;;;;;;11.45;96.11;99925.81;4921606;29;20091;-78
2021/12/30 05:40:59;;;;;;;2.33;0.65;;;;;;;11.45;96.49;99928.50;4921078;29;20539;-79
2021/12/30 05:43:25;;;;;;;2.53;0.93;;;;;;;11.45;96.45;99925.81;4920714;29;20458;-78
2021/12/30 05:45:50;;;;;;;3.58;1.02;;;;;;;11.46;96.52;99921.25;4902692;29;20059;-78
2021/12/30 05:48:15;;;;;;;2.03;0.75;;;;;;;11.52;96.10;99916.81;4920153;29;20064;-77
2021/12/30 05:50:41;;;;;;;4.05;1.10;;;;;;;11.51;96.41;99917.84;4920840;29;20027;-80
2021/12/30 05:53:06;;;;;;;;;;;;;;;11.55;96.44;99916.38;4920620;29;20459;-78
2021/12/30 05:55:32;;;;;;;7.95;1.90;;;;;;;11.59;96.54;99925.69;4920001;29;19915;-80
2021/12/30 05:57:58;;;;;;;;;;;;;;;11.60;96.42;99925.47;4921301;29;20040;-80
2021/12/30 06:00:28;;;;;;;8.07;2.60;;;;;;;11.62;96.70;99912.56;4903481;29;20333;-80
2021/12/30 06:02:53;;;;;;;7.93;2.78;;;;;;;11.66;96.61;99919.16;4920145;29;20115;-79
2021/12/30 06:05:19;;;;;;;7.20;2.22;;;;;;;11.67;96.22;99919.97;4903149;29;20063;-81
2021/12/30 06:07:44;;;;;;;8.63;3.00;;;;;;;11.69;96.30;99931.38;4921749;29;20043;-80
2021/12/30 06:10:11;;;;;;;6.70;2.72;;;;;;;11.71;96.39;99930.09;4920335;29;20028;-78
2021/12/30 06:12:37;;;;;;;8.00;2.45;;;;;;;11.74;96.57;99926.97;4920853;29;20095;-80
2021/12/30 06:15:03;;;;;;;;;;;;;;;11.75;96.55;99938.56;4921483;29;20042;-80
2021/12/30 06:17:28;;;;;;;4.38;1.60;;;;;;;11.78;96.30;99940.88;4920647;29;20409;-79
2021/12/30 06:19:53;;;;;;;6.22;2.05;;;;;;;11.79;96.43;99939.81;4920263;29;20044;-78
2021/12/30 06:22:19;;;;;;;;;;;;;;;11.79;96.61;99939.81;4921145;29;20032;-79
2021/12/30 06:24:44;;;;;;;5.47;2.08;;;;;;;11.81;96.45;99943.13;4919698;29;20002;-78
2021/12/30 06:27:10;;;;;;;;;;;;;;;11.85;96.55;99943.47;4920468;29;20032;-80
2021/12/30 06:29:36;;;;;;;6.55;1.70;;;;;;;11.85;96.62;99949.69;4919396;29;19911;-78
2021/12/30 06:32:03;;;;;;;5.68;1.92;;;;;;;11.87;96.64;99942.19;4919275;29;20440;-78
2021/12/30 06:34:28;;;;;;;5.07;1.77;;;;;;;11.90;96.31;99952.56;4919019;29;20382;-77
2021/12/30 06:36:54;;;;;;;6.57;2.08;;;;;;;11.94;96.56;99948.38;4919204;29;20036;-77
2021/12/30 06:39:19;;;;;;;7.68;2.42;;;;;;;11.99;96.38;99947.69;4919408;29;20040;-79
2021/12/30 06:41:44;;;;;;;;;;;;;;;12.04;96.09;99942.41;4920106;29;20032;-80
2021/12/30 06:44:10;;;;;;;7.23;2.67;;;;;;;12.06;96.18;99935.75;4918246;29;20010;-77
2021/12/30 06:46:35;;;;;;;7.45;2.35;;;;;;;12.06;96.10;99951.94;4919468;29;20304;-79
2021/12/30 06:49:03;;;;;;;7.97;3.20;;;;;;;12.12;96.23;99940.25;4920013;29;20036;-79
2021/12/30 06:51:34;;;;;;;10.55;2.90;;;;;;;12.12;96.23;99944.84;4920972;29;20107;-86
2021/12/30 06:54:00;;;;;;;7.78;2.58;;;;;;;12.08;96.46;99944.44;4920533;29;20388;-82
2021/12/30 06:56:25;;;;;;;7.95;2.88;;;;;;;12.11;96.48;99945.88;4920007;29;20126;-82
2021/12/30 06:58:50;;;;;;;;;;;;;;;12.11;96.07;99938.59;4920169;29;20051;-78
2021/12/30 07:01:16;;;;;;;6.75;2.45;;;;;;;12.18;96.27;99952.84;4901888;29;19915;-82
2021/12/30 07:03:41;;;;;;;8.07;2.38;;;;;;;12.16;96.32;99946.84;4919355;29;20038;-84
2021/12/30 07:06:07;;;;;;;6.22;2.47;;;;;;;12.16;96.52;99956.84;4919766;29;20067;-80
2021/12/30 07:08:34;;;;;;;6.78;2.17;;;;;;;12.15;96.22;99950.59;4919568;29;20075;-82
2021/12/30 07:11:00;;;;;;;7.93;2.42;;;;;;;12.18;95.90;99953.91;4920672;29;20054;-82
2021/12/30 07:13:25;;;;;;;6.32;2.50;;;;;;;12.21;95.94;99966.94;4920182;29;20052;-83
2021/12/30 07:15:50;;;;;;;7.20;2.40;;;;;;;12.20;95.88;99962.59;4919719;29;20439;-84
2021/12/30 07:18:15;;;;;;;;;;;;;;;12.24;95.81;99961.09;4920198;29;20305;-82
2021/12/30 07:20:41;;;;;;;5.27;2.03;;;;;;;12.25;95.53;99977.06;4919722;29;19962;-80
2021/12/30 07:23:07;;;;;;;7.45;2.33;;;;;;;12.25;95.64;99971.66;4918877;29;20296;-80
2021/12/30 07:25:32;;;;;;;;;;;;;;;12.27;95.75;99971.44;4902665;29;20146;-78
2021/12/30 07:27:57;;;;;;;7.22;2.22;;;;;;;12.26;95.68;99989.53;4919506;29;20346;-81
2021/12/30 07:30:25;;;;;;;5.82;1.90;;;;;;;12.28;95.62;99994.72;4902042;29;20256;-80
2021/12/30 07:32:51;;;;;;;5.45;2.33;;;;;;;12.27;95.78;100003.88;4919200;29;20044;-82
2021/12/30 07:35:19;;;;;;;5.68;2.10;;;;;;;12.28;95.64;100008.22;4918623;29;20561;-82
2021/12/30 07:37:45;;;;;;;6.07;1.83;;;;;;;12.29;96.16;100009.88;4919103;29;20110;-84
2021/12/30 07:40:11;;;;;;;6.53;1.98;;;;;;;12.29;96.10;100021.50;4918754;29;20602;-81
2021/12/30 07:42:37;;;;;;;5.93;1.88;;;;;;;12.28;95.72;100029.81;4919317;29;20044;-79
2021/12/30 07:45:12;;;;;;;;;;;;;;;12.26;95.67;100032.75;4918916;29;20048;-82
2021/12/30 07:47:39;;;;;;;6.78;2.42;;;;;;;12.26;95.63;100032.75;4918813;29;19919;-80
2021/12/30 07:50:04;;;;;;;6.05;2.30;;;;;;;12.30;95.82;100035.84;4919751;29;20040;-81
2021/12/30 07:52:30;;;;;;;5.80;2.63;;;;;;;12.28;96.07;100044.16;4919241;29;20032;-80
2021/12/30 07:54:55;;;;;;;7.30;3.15;;;;;;;12.26;95.89;100046.25;4903304;29;20044;-82
2021/12/30 07:57:21;;;;;;;;;;;;;;;12.25;95.95;100054.59;4919760;29;20036;-78
2021/12/30 07:59:50;;;;;;;6.93;2.85;;;;;;;12.26;95.67;100056.22;4919649;29;19947;-82
2021/12/30 08:02:16;;;;;;;5.93;2.20;;;;;;;12.25;95.93;100066.22;4918848;29;20032;-83
2021/12/30 08:04:42;;;;;;;7.00;2.08;;;;;;;12.23;96.22;100062.09;4919889;29;20111;-82
2021/12/30 08:07:08;;;;;;;7.78;2.85;;;;;;;12.24;95.89;100064.56;4919483;29;20482;-78
2021/12/30 08:09:33;;;;;;;10.70;4.22;;;;;;;12.26;95.81;100064.34;4921089;29;20095;-81
2021/12/30 08:12:00;;;;;;;8.45;3.70;;;;;;;12.26;96.08;100078.66;4920241;29;20407;-81
2021/12/30 08:14:26;;;;;;;8.25;3.25;;;;;;;12.29;96.12;100074.69;4919756;29;20123;-78
2021/12/30 08:16:51;;;;;;;;;;;;;;;12.28;96.04;100073.03;4920876;29;20036;-81
2021/12/30 08:19:16;;;;;;;7.53;2.43;;;;;;;12.27;95.74;100076.78;4919708;29;20016;-82
2021/12/30 08:21:43;;;;;;;7.88;2.95;;;;;;;12.27;96.08;100068.69;4920513;29;20272;-83
2021/12/30 08:24:09;;;;;;;7.47;2.50;;;;;;;12.27;95.81;100074.09;4918516;29;20036;-78
2021/12/30 08:26:35;;;;;;;;;;;;;;;12.30;95.91;100081.75;4919637;29;20032;-80
2021/12/30 08:29:00;;;;;;;8.02;2.53;;;;;;;12.28;95.79;100068.47;4918772;29;19949;-77
2021/12/30 08:31:25;;;;;;;;;;;;;;;12.29;95.99;100090.91;4920731;29;20042;-81
2021/12/30 08:33:51;;;;;;;10.43;3.43;;;;;;;12.30;95.95;100084.47;4924047;29;20325;-81
2021/12/30 08:36:16;;;;;;;9.88;3.00;;;;;;;12.29;95.64;100077.41;4923632;29;20711;-82
2021/12/30 08:38:42;;;;;;;6.73;2.87;;;;;;;12.30;95.66;100076.34;4923981;29;20036;-79
2021/12/30 08:41:07;;;;;;;6.90;2.10;;;;;;;12.28;95.70;100090.09;4905869;29;20343;-82
2021/12/30 08:43:32;;;;;;;;;;;;;;;12.29;96.03;100096.31;4922728;29;20376;-81
2021/12/30 08:45:57;;;;;;;5.77;1.97;;;;;;;12.29;95.61;100091.75;4922114;29;19919;-78
2021/12/30 08:48:23;;;;;;;5.82;1.90;;;;;;;12.28;95.91;100089.25;4905757;29;20652;-81
2021/12/30 08:50:48;;;;;;;;;;;;;;;12.28;96.07;100100.06;4923054;29;20095;-80
2021/12/30 08:53:15;;;;;;;5.85;2.03;;;;;;;12.28;95.74;100102.75;4922914;29;19954;-81
2021/12/30 08:55:40;;;;;;;5.93;2.17;;;;;;;12.26;95.90;100102.16;4922161;29;20074;-80
2021/12/30 08:58:06;;;;;;;5.40;2.08;;;;;;;12.26;96.07;100105.69;4921928;29;20151;-82
2021/12/30 09:00:36;;;;;;;5.55;2.25;;;;;;;12.24;95.75;100118.59;4921846;29;20044;-79
2021/12/30 09:03:04;;;;;;;9.45;2.58;;;;;;;12.27;95.59;100120.03;4921757;29;20383;-81
2021/12/30 09:05:31;;;;;;;8.40;2.63;;;;;;;12.25;96.00;100116.72;4921373;29;20376;-78
2021/12/30 09:07:56;;;;;;;6.15;2.05;;;;;;;12.29;96.10;100123.31;4922986;29;20080;-78
2021/12/30 09:10:22;;;;;;;6.50;2.23;;;;;;;12.31;95.62;100129.34;4921642;29;20036;-79
2021/12/30 09:12:48;;;;;;;8.43;2.70;;;;;;;12.31;95.59;100116.66;4921140;29;20257;-78
2021/12/30 09:15:17;;;;;;;7.40;2.55;;;;;;;12.29;95.78;100121.44;4921247;29;20073;-80
2021/12/30 09:17:45;;;;;;;8.55;2.97;;;;;;;12.30;95.75;100112.31;4921412;29;20051;-81
2021/12/30 09:20:11;;;;;;;7.57;3.28;;;;;;;12.29;95.67;100099.00;4921433;29;20420;-78
2021/12/30 09:22:37;;;;;;;10.57;2.88;;;;;;;12.31;95.32;100086.94;4921241;29;20083;-79
2021/12/30 09:25:05;;;;;;;;;;;;;;;12.31;95.53;100088.81;4921217;29;20115;-77
2021/12/30 09:27:33;;;;;;;6.07;1.92;;;;;;;12.33;95.23;100086.72;4920044;29;19915;-77
2021/12/30 09:29:59;;;;;;;4.72;2.08;;;;;;;12.34;95.37;100094.59;4920037;29;20040;-79
2021/12/30 09:32:24;;;;;;;;;;;;;;;12.36;95.29;100110.59;4921077;29;20044;-77
2021/12/30 09:34:50;;;;;;;5.10;2.10;;;;;;;12.37;95.15;100114.91;4919646;29;19958;-78
2021/12/30 09:37:15;;;;;;;;;;;;;;;12.40;95.29;100119.88;4920503;29;20032;-80
2021/12/30 09:39:40;;;;;;;7.70;2.37;;;;;;;12.44;94.68;100121.91;4920219;29;19919;-78
2021/12/30 09:42:07;;;;;;;4.68;1.60;;;;;;;12.45;95.01;100122.75;4919650;29;20268;-78
2021/12/30 09:44:32;;;;;;;;;;;;;;;12.52;95.01;100134.31;4920233;29;20151;-79
2021/12/30 09:46:57;;;;;;;6.87;1.83;;;;;;;12.52;94.95;100134.31;4919417;29;20378;-79
2021/12/30 09:49:24;;;;;;;4.63;1.70;;;;;;;12.57;94.61;100126.34;4920360;29;20611;-78
2021/12/30 09:51:50;;;;;;;4.35;1.63;;;;;;;12.57;94.94;100125.50;4919748;29;20465;-78
2021/12/30 09:54:16;;;;;;;5.30;1.45;;;;;;;12.61;94.40;100127.53;4920414;29;20028;-81
2021/12/30 09:56:42;;;;;;;3.55;1.40;;;;;;;12.65;94.55;100128.75;4920806;29;20115;-81
2021/12/30 09:59:12;;;;;;;3.63;1.75;;;;;;;12.66;94.28;100130.41;4921322;29;20086;-82
2021/12/30 10:01:41;;;;;;;4.25;1.48;;;;;;;12.65;94.20;100134.16;4904014;29;20028;-79
2021/12/30 10:04:08;;;;;;;3.67;1.50;;;;;;;12.65;94.36;100130.63;4921248;29;20115;-79
2021/12/30 10:06:34;;;;;;;3.58;1.23;;;;;;;12.69;93.87;100118.31;4907264;29;20039;-87
2021/12/30 10:09:09;;;;;;;3.17;1.13;;;;;;;12.73;93.75;100130.31;4926777;29;20126;-79
2021/12/30 10:11:48;;;;;;;3.10;1.20;;;;;;;12.70;93.71;100131.63;4924803;29;20032;-77
2021/12/30 10:14:27;;;;;;;3.15;1.17;;;;;;;12.72;93.68;100137.59;4922333;29;20114;-78
2021/12/30 10:17:13;;;;;;;3.72;1.55;;;;;;;12.74;93.28;100135.50;4924082;29;20039;-85
2021/12/30 10:19:38;;;;;;;3.13;1.10;;;;;;;12.81;92.79;100151.66;4922691;29;20111;-81
2021/12/30 10:22:13;;;;;;;2.90;1.20;;;;;;;12.77;92.99;100145.03;4904642;29;20068;-81
2021/12/30 10:24:39;;;;;;;3.88;1.20;;;;;;;12.75;93.26;100156.06;4921454;29;20314;-80
2021/12/30 10:27:04;;;;;;;;;;;;;;;12.77;93.04;100153.16;4919761;29;20495;-80
2021/12/30 10:29:44;;;;;;;3.65;1.08;;;;;;;12.78;93.02;100157.50;4919528;29;19956;-77
2021/12/30 10:32:17;;;;;;;3.08;1.17;;;;;;;12.81;92.94;100148.94;4921128;29;20043;-81
2021/12/30 10:35:01;;;;;;;3.60;1.30;;;;;;;12.85;92.24;100145.56;4920908;29;20050;-82
2021/12/30 10:37:27;;;;;;;2.03;0.65;;;;;;;12.85;92.25;100150.97;4920765;29;20432;-81
2021/12/30 10:39:52;;;;;;;2.78;1.15;;;;;;;12.87;92.14;100158.88;4921082;29;20066;-77
2021/12/30 10:42:21;;;;;;;;;;;;;;;12.92;91.39;100167.09;4923705;29;20032;-76
2021/12/30 10:44:47;;;;;;;2.50;0.98;;;;;;;12.97;91.32;100161.03;4920918;29;20326;-78
2021/12/30 10:47:13;;;;;;;2.85;0.80;;;;;;;12.97;91.16;100169.13;4904415;29;20035;-80
2021/12/30 10:49:38;;;;;;;;;;;;;;;12.99;91.32;100161.63;4922384;29;20047;-77
2021/12/30 10:52:06;;;;;;;2.78;1.00;;;;;;;13.02;91.01;100166.59;4919357;29;19918;-78
2021/12/30 10:54:34;;;;;;;2.72;0.80;;;;;;;13.02;91.08;100158.47;4922803;29;20035;-83
2021/12/30 10:57:04;;;;;;;2.70;0.95;;;;;;;13.01;91.57;100162.22;4923488;29;20036;-79
2021/12/30 10:59:31;;;;;;;2.63;0.90;;;;;;;12.98;91.02;100173.50;4905358;29;20383;-80
2021/12/30 11:02:01;;;;;;;2.70;0.90;;;;;;;12.95;90.92;100155.84;4920501;29;20056;-85
2021/12/30 11:04:39;;;;;;;3.10;1.13;;;;;;;12.95;91.10;100171.25;4921441;29;20055;-79
2021/12/30 11:07:07;;;;;;;2.20;0.80;;;;;;;12.97;90.80;100163.72;4920901;29;20127;-80
2021/12/30 11:09:33;;;;;;;3.50;1.40;;;;;;;12.91;91.26;100178.97;4919566;29;20032;-79
2021/12/30 11:12:03;;;;;;;2.97;1.05;;;;;;;12.91;91.35;100162.75;4920815;29;20032;-84
2021/12/30 11:14:32;;;;;;;3.10;0.73;;;;;;;12.96;90.20;100164.78;4920737;29;20115;-80
2021/12/30 11:17:05;;;;;;;2.35;1.00;;;;;;;12.95;90.06;100155.00;4904591;29;20063;-80
2021/12/30 11:19:35;;;;;;;2.58;1.27;;;;;;;12.97;89.68;100166.44;4920913;29;20036;-82
2021/12/30 11:22:05;;;;;;;2.70;0.93;;;;;;;12.97;89.48;100169.97;4921361;29;20058;-79
2021/12/30 11:24:31;;;;;;;2.40;1.10;;;;;;;13.06;88.90;100165.09;4921558;29;20428;-79
2021/12/30 11:26:58;;;;;;;2.58;0.82;;;;;;;13.08;88.82;100176.47;4921679;29;20036;-80
2021/12/30 11:29:26;;;;;;;2.22;1.05;;;;;;;13.05;89.32;100171.56;4921540;29;20237;-80
2021/12/30 11:31:52;;;;;;;3.83;1.05;;;;;;;13.03;89.62;100162.84;4921805;29;20063;-82
2021/12/30 11:34:22;;;;;;;2.53;0.95;;;;;;;13.06;88.76;100163.22;4922462;29;20428;-80